sensor_id;sensor_type;location;lat;lon;timestamp;temperature;humidity
435;DHT22;204;48.942;9.256;2022-10-22T00:00:12;15.60;1.00
435;DHT22;204;48.942;9.256;2022-10-22T00:02:38;15.60;1.00
435;DHT22;204;48.942;9.256;2022-10-22T00:05:04;15.60;1.00
435;DHT22;204;48.942;9.256;2022-10-22T00:07:30;15.50;1.00
435;DHT22;204;48.942;9.256;2022-10-22T00:09:55;15.60;1.00
435;DHT22;204;48.942;9.256;2022-10-22T00:12:21;15.50;1.00
435;DHT22;204;48.942;9.256;2022-10-22T00:14:47;15.50;1.00
435;DHT22;204;48.942;9.256;2022-10-22T00:17:13;15.50;1.00
435;DHT22;204;48.942;9.256;2022-10-22T00:19:39;15.50;1.00
435;DHT22;204;48.942;9.256;2022-10-22T00:22:06;15.40;1.00
435;DHT22;204;48.942;9.256;2022-10-22T00:24:33;15.40;1.00
435;DHT22;204;48.942;9.256;2022-10-22T00:26:59;15.40;1.00
435;DHT22;204;48.942;9.256;2022-10-22T00:29:25;15.30;1.00
435;DHT22;204;48.942;9.256;2022-10-22T00:31:51;15.30;1.00
435;DHT22;204;48.942;9.256;2022-10-22T00:34:18;15.30;1.00
435;DHT22;204;48.942;9.256;2022-10-22T00:36:44;15.20;1.00
435;DHT22;204;48.942;9.256;2022-10-22T00:39:11;15.20;1.00
435;DHT22;204;48.942;9.256;2022-10-22T00:41:38;15.20;1.00
435;DHT22;204;48.942;9.256;2022-10-22T00:44:05;15.10;1.00
435;DHT22;204;48.942;9.256;2022-10-22T00:46:31;15.10;1.00
435;DHT22;204;48.942;9.256;2022-10-22T00:48:59;15.10;1.00
435;DHT22;204;48.942;9.256;2022-10-22T00:51:29;15.10;1.00
435;DHT22;204;48.942;9.256;2022-10-22T00:53:59;15.10;1.00
435;DHT22;204;48.942;9.256;2022-10-22T00:56:25;15.20;1.00
435;DHT22;204;48.942;9.256;2022-10-22T00:58:54;15.10;1.00
435;DHT22;204;48.942;9.256;2022-10-22T01:01:24;15.10;1.00
435;DHT22;204;48.942;9.256;2022-10-22T01:03:50;15.10;1.00
435;DHT22;204;48.942;9.256;2022-10-22T01:06:30;15.10;1.00
435;DHT22;204;48.942;9.256;2022-10-22T01:19:45;15.00;1.00
435;DHT22;204;48.942;9.256;2022-10-22T01:22:33;15.00;1.00
435;DHT22;204;48.942;9.256;2022-10-22T01:25:11;15.00;1.00
435;DHT22;204;48.942;9.256;2022-10-22T01:30:19;14.90;1.00
435;DHT22;204;48.942;9.256;2022-10-22T01:32:55;15.00;1.00
435;DHT22;204;48.942;9.256;2022-10-22T01:35:41;14.90;1.00
435;DHT22;204;48.942;9.256;2022-10-22T01:38:11;14.90;1.00
435;DHT22;204;48.942;9.256;2022-10-22T01:40:38;14.90;1.00
435;DHT22;204;48.942;9.256;2022-10-22T01:43:06;14.90;1.00
435;DHT22;204;48.942;9.256;2022-10-22T01:45:36;14.90;1.00
435;DHT22;204;48.942;9.256;2022-10-22T02:04:16;14.80;1.00
435;DHT22;204;48.942;9.256;2022-10-22T02:06:44;14.80;1.00
435;DHT22;204;48.942;9.256;2022-10-22T02:09:13;14.80;1.00
435;DHT22;204;48.942;9.256;2022-10-22T02:11:41;14.90;1.00
435;DHT22;204;48.942;9.256;2022-10-22T02:14:08;14.90;1.00
435;DHT22;204;48.942;9.256;2022-10-22T02:16:42;14.80;1.00
435;DHT22;204;48.942;9.256;2022-10-22T02:19:39;14.80;1.00
435;DHT22;204;48.942;9.256;2022-10-22T02:22:06;14.90;1.00
435;DHT22;204;48.942;9.256;2022-10-22T02:24:32;14.90;1.00
435;DHT22;204;48.942;9.256;2022-10-22T02:27:11;14.90;1.00
435;DHT22;204;48.942;9.256;2022-10-22T02:29:48;14.90;1.00
435;DHT22;204;48.942;9.256;2022-10-22T02:32:19;14.90;1.00
435;DHT22;204;48.942;9.256;2022-10-22T02:34:46;14.80;1.00
435;DHT22;204;48.942;9.256;2022-10-22T02:37:13;14.70;1.00
435;DHT22;204;48.942;9.256;2022-10-22T02:39:40;14.70;1.00
435;DHT22;204;48.942;9.256;2022-10-22T02:42:07;14.60;1.00
435;DHT22;204;48.942;9.256;2022-10-22T02:44:33;14.60;1.00
435;DHT22;204;48.942;9.256;2022-10-22T02:46:59;14.60;1.00
435;DHT22;204;48.942;9.256;2022-10-22T02:49:24;14.60;1.00
435;DHT22;204;48.942;9.256;2022-10-22T02:51:50;14.60;1.00
435;DHT22;204;48.942;9.256;2022-10-22T02:54:16;14.50;1.00
435;DHT22;204;48.942;9.256;2022-10-22T02:56:41;14.50;1.00
435;DHT22;204;48.942;9.256;2022-10-22T02:59:07;14.40;1.00
435;DHT22;204;48.942;9.256;2022-10-22T03:01:32;14.40;1.00
435;DHT22;204;48.942;9.256;2022-10-22T03:03:58;14.40;1.00
435;DHT22;204;48.942;9.256;2022-10-22T03:06:23;14.30;1.00
435;DHT22;204;48.942;9.256;2022-10-22T03:08:49;14.30;1.00
435;DHT22;204;48.942;9.256;2022-10-22T03:11:15;14.30;1.00
435;DHT22;204;48.942;9.256;2022-10-22T03:13:41;14.30;1.00
435;DHT22;204;48.942;9.256;2022-10-22T03:16:06;14.20;1.00
435;DHT22;204;48.942;9.256;2022-10-22T03:18:35;14.20;1.00
435;DHT22;204;48.942;9.256;2022-10-22T03:21:05;14.20;1.00
435;DHT22;204;48.942;9.256;2022-10-22T03:23:32;14.20;1.00
435;DHT22;204;48.942;9.256;2022-10-22T03:25:58;14.30;1.00
435;DHT22;204;48.942;9.256;2022-10-22T03:28:24;14.30;1.00
435;DHT22;204;48.942;9.256;2022-10-22T03:30:51;14.20;1.00
435;DHT22;204;48.942;9.256;2022-10-22T03:33:17;14.20;1.00
435;DHT22;204;48.942;9.256;2022-10-22T03:35:44;14.20;1.00
435;DHT22;204;48.942;9.256;2022-10-22T03:38:11;14.20;1.00
435;DHT22;204;48.942;9.256;2022-10-22T03:40:38;14.20;1.00
435;DHT22;204;48.942;9.256;2022-10-22T03:43:03;14.20;1.00
435;DHT22;204;48.942;9.256;2022-10-22T03:45:29;14.30;1.00
435;DHT22;204;48.942;9.256;2022-10-22T03:47:55;14.30;1.00
435;DHT22;204;48.942;9.256;2022-10-22T03:50:20;14.30;1.00
435;DHT22;204;48.942;9.256;2022-10-22T03:52:46;14.30;1.00
435;DHT22;204;48.942;9.256;2022-10-22T03:55:11;14.30;1.00
435;DHT22;204;48.942;9.256;2022-10-22T03:57:37;14.30;1.00
435;DHT22;204;48.942;9.256;2022-10-22T04:00:04;14.30;1.00
435;DHT22;204;48.942;9.256;2022-10-22T04:02:30;14.30;1.00
435;DHT22;204;48.942;9.256;2022-10-22T04:04:56;14.30;1.00
435;DHT22;204;48.942;9.256;2022-10-22T04:07:21;14.30;1.00
435;DHT22;204;48.942;9.256;2022-10-22T04:09:47;14.30;1.00
435;DHT22;204;48.942;9.256;2022-10-22T04:12:12;14.30;1.00
435;DHT22;204;48.942;9.256;2022-10-22T04:14:38;14.30;1.00
435;DHT22;204;48.942;9.256;2022-10-22T04:17:03;14.40;1.00
435;DHT22;204;48.942;9.256;2022-10-22T04:19:29;14.40;1.00
435;DHT22;204;48.942;9.256;2022-10-22T04:21:57;14.50;1.00
435;DHT22;204;48.942;9.256;2022-10-22T04:24:23;14.50;1.00
435;DHT22;204;48.942;9.256;2022-10-22T04:26:49;14.50;1.00
435;DHT22;204;48.942;9.256;2022-10-22T04:29:14;14.50;1.00
435;DHT22;204;48.942;9.256;2022-10-22T04:31:40;14.50;1.00
435;DHT22;204;48.942;9.256;2022-10-22T04:34:06;14.50;1.00
435;DHT22;204;48.942;9.256;2022-10-22T04:36:31;14.50;1.00
435;DHT22;204;48.942;9.256;2022-10-22T04:38:59;14.40;1.00
435;DHT22;204;48.942;9.256;2022-10-22T04:41:30;14.40;1.00
435;DHT22;204;48.942;9.256;2022-10-22T04:43:56;14.30;1.00
435;DHT22;204;48.942;9.256;2022-10-22T04:46:23;14.20;1.00
435;DHT22;204;48.942;9.256;2022-10-22T04:48:50;14.20;1.00
435;DHT22;204;48.942;9.256;2022-10-22T04:51:17;14.10;1.00
435;DHT22;204;48.942;9.256;2022-10-22T04:53:44;14.10;1.00
435;DHT22;204;48.942;9.256;2022-10-22T04:58:47;14.10;1.00
435;DHT22;204;48.942;9.256;2022-10-22T05:01:19;14.00;1.00
435;DHT22;204;48.942;9.256;2022-10-22T05:03:45;14.00;1.00
435;DHT22;204;48.942;9.256;2022-10-22T05:06:11;13.90;1.00
435;DHT22;204;48.942;9.256;2022-10-22T05:08:37;13.90;1.00
435;DHT22;204;48.942;9.256;2022-10-22T05:11:15;13.90;1.00
435;DHT22;204;48.942;9.256;2022-10-22T05:13:41;13.90;1.00
435;DHT22;204;48.942;9.256;2022-10-22T05:16:07;13.90;1.00
435;DHT22;204;48.942;9.256;2022-10-22T05:18:37;13.80;1.00
435;DHT22;204;48.942;9.256;2022-10-22T05:21:07;13.80;1.00
435;DHT22;204;48.942;9.256;2022-10-22T05:23:32;13.80;1.00
435;DHT22;204;48.942;9.256;2022-10-22T05:26:01;13.80;1.00
435;DHT22;204;48.942;9.256;2022-10-22T05:28:27;13.70;1.00
435;DHT22;204;48.942;9.256;2022-10-22T05:30:57;13.70;1.00
435;DHT22;204;48.942;9.256;2022-10-22T05:33:24;13.70;1.00
435;DHT22;204;48.942;9.256;2022-10-22T05:35:50;13.60;1.00
435;DHT22;204;48.942;9.256;2022-10-22T05:38:16;13.60;1.00
435;DHT22;204;48.942;9.256;2022-10-22T05:40:42;13.60;1.00
435;DHT22;204;48.942;9.256;2022-10-22T05:43:08;13.50;1.00
435;DHT22;204;48.942;9.256;2022-10-22T05:45:38;13.40;1.00
435;DHT22;204;48.942;9.256;2022-10-22T05:48:04;13.40;1.00
435;DHT22;204;48.942;9.256;2022-10-22T05:50:30;13.30;1.00
435;DHT22;204;48.942;9.256;2022-10-22T05:52:55;13.30;1.00
435;DHT22;204;48.942;9.256;2022-10-22T05:55:21;13.20;1.00
435;DHT22;204;48.942;9.256;2022-10-22T05:57:47;13.20;1.00
435;DHT22;204;48.942;9.256;2022-10-22T06:00:15;13.10;1.00
435;DHT22;204;48.942;9.256;2022-10-22T06:02:41;13.10;1.00
435;DHT22;204;48.942;9.256;2022-10-22T06:05:07;13.10;1.00
435;DHT22;204;48.942;9.256;2022-10-22T06:07:32;13.10;1.00
435;DHT22;204;48.942;9.256;2022-10-22T06:09:59;13.10;1.00
435;DHT22;204;48.942;9.256;2022-10-22T06:12:25;13.10;1.00
435;DHT22;204;48.942;9.256;2022-10-22T06:14:51;13.10;1.00
435;DHT22;204;48.942;9.256;2022-10-22T06:17:16;13.20;1.00
435;DHT22;204;48.942;9.256;2022-10-22T06:19:44;13.20;1.00
435;DHT22;204;48.942;9.256;2022-10-22T06:22:09;13.30;1.00
435;DHT22;204;48.942;9.256;2022-10-22T06:24:35;13.30;1.00
435;DHT22;204;48.942;9.256;2022-10-22T06:27:01;13.30;1.00
435;DHT22;204;48.942;9.256;2022-10-22T06:29:26;13.40;1.00
435;DHT22;204;48.942;9.256;2022-10-22T06:31:52;13.40;1.00
435;DHT22;204;48.942;9.256;2022-10-22T06:34:18;13.50;1.00
435;DHT22;204;48.942;9.256;2022-10-22T06:36:44;13.50;1.00
435;DHT22;204;48.942;9.256;2022-10-22T06:39:12;13.50;1.00
435;DHT22;204;48.942;9.256;2022-10-22T06:41:38;13.60;1.00
435;DHT22;204;48.942;9.256;2022-10-22T06:44:04;13.60;1.00
435;DHT22;204;48.942;9.256;2022-10-22T06:46:29;13.70;1.00
435;DHT22;204;48.942;9.256;2022-10-22T06:49:01;13.70;1.00
435;DHT22;204;48.942;9.256;2022-10-22T06:51:27;13.80;1.00
435;DHT22;204;48.942;9.256;2022-10-22T06:53:55;13.80;1.00
435;DHT22;204;48.942;9.256;2022-10-22T06:56:23;13.90;1.00
435;DHT22;204;48.942;9.256;2022-10-22T06:58:50;14.10;1.00
435;DHT22;204;48.942;9.256;2022-10-22T07:01:18;14.20;1.00
435;DHT22;204;48.942;9.256;2022-10-22T07:03:44;14.30;1.00
435;DHT22;204;48.942;9.256;2022-10-22T07:06:12;14.50;1.00
435;DHT22;204;48.942;9.256;2022-10-22T07:08:39;14.60;1.00
435;DHT22;204;48.942;9.256;2022-10-22T07:11:13;14.80;1.00
435;DHT22;204;48.942;9.256;2022-10-22T07:13:39;14.90;1.00
435;DHT22;204;48.942;9.256;2022-10-22T07:16:06;15.00;1.00
435;DHT22;204;48.942;9.256;2022-10-22T07:18:33;15.10;1.00
435;DHT22;204;48.942;9.256;2022-10-22T07:20:59;15.20;1.00
435;DHT22;204;48.942;9.256;2022-10-22T07:23:25;15.20;1.00
435;DHT22;204;48.942;9.256;2022-10-22T07:25:51;15.30;1.00
435;DHT22;204;48.942;9.256;2022-10-22T07:28:17;15.40;1.00
435;DHT22;204;48.942;9.256;2022-10-22T07:30:42;15.60;1.00
435;DHT22;204;48.942;9.256;2022-10-22T07:33:08;15.80;1.00
435;DHT22;204;48.942;9.256;2022-10-22T07:35:36;16.00;1.00
435;DHT22;204;48.942;9.256;2022-10-22T07:38:02;16.20;1.00
435;DHT22;204;48.942;9.256;2022-10-22T07:40:28;16.40;1.00
435;DHT22;204;48.942;9.256;2022-10-22T07:42:54;16.50;1.00
435;DHT22;204;48.942;9.256;2022-10-22T07:45:19;16.60;1.00
435;DHT22;204;48.942;9.256;2022-10-22T07:47:46;16.60;1.00
435;DHT22;204;48.942;9.256;2022-10-22T07:50:12;16.60;1.00
435;DHT22;204;48.942;9.256;2022-10-22T07:52:37;16.60;1.00
435;DHT22;204;48.942;9.256;2022-10-22T07:55:03;16.60;1.00
435;DHT22;204;48.942;9.256;2022-10-22T07:57:29;16.60;1.00
435;DHT22;204;48.942;9.256;2022-10-22T07:59:56;16.60;1.00
435;DHT22;204;48.942;9.256;2022-10-22T08:02:25;16.60;1.00
435;DHT22;204;48.942;9.256;2022-10-22T08:04:51;16.60;1.00
435;DHT22;204;48.942;9.256;2022-10-22T08:07:17;16.70;1.00
435;DHT22;204;48.942;9.256;2022-10-22T08:09:43;16.70;1.00
435;DHT22;204;48.942;9.256;2022-10-22T08:12:09;16.80;1.00
435;DHT22;204;48.942;9.256;2022-10-22T08:14:35;16.80;1.00
435;DHT22;204;48.942;9.256;2022-10-22T08:17:00;16.80;1.00
435;DHT22;204;48.942;9.256;2022-10-22T08:19:26;16.90;1.00
435;DHT22;204;48.942;9.256;2022-10-22T08:21:53;17.00;1.00
435;DHT22;204;48.942;9.256;2022-10-22T08:24:18;17.00;1.00
435;DHT22;204;48.942;9.256;2022-10-22T08:26:44;17.10;1.00
435;DHT22;204;48.942;9.256;2022-10-22T08:29:10;17.10;1.00
435;DHT22;204;48.942;9.256;2022-10-22T08:31:35;17.10;1.00
435;DHT22;204;48.942;9.256;2022-10-22T08:34:01;17.10;1.00
435;DHT22;204;48.942;9.256;2022-10-22T08:36:26;17.10;1.00
435;DHT22;204;48.942;9.256;2022-10-22T08:38:52;17.20;1.00
435;DHT22;204;48.942;9.256;2022-10-22T08:41:19;17.20;1.00
435;DHT22;204;48.942;9.256;2022-10-22T08:46:45;17.40;1.00
435;DHT22;204;48.942;9.256;2022-10-22T08:49:33;17.40;1.00
435;DHT22;204;48.942;9.256;2022-10-22T08:52:01;17.50;1.00
435;DHT22;204;48.942;9.256;2022-10-22T08:54:36;17.50;1.00
435;DHT22;204;48.942;9.256;2022-10-22T09:00:21;17.60;1.00
435;DHT22;204;48.942;9.256;2022-10-22T09:08:16;17.80;1.00
435;DHT22;204;48.942;9.256;2022-10-22T09:10:48;17.90;1.00
435;DHT22;204;48.942;9.256;2022-10-22T09:13:17;18.00;1.00
435;DHT22;204;48.942;9.256;2022-10-22T09:15:53;18.00;1.00
435;DHT22;204;48.942;9.256;2022-10-22T09:26:20;18.40;1.00
435;DHT22;204;48.942;9.256;2022-10-22T09:28:49;18.60;1.00
435;DHT22;204;48.942;9.256;2022-10-22T09:31:15;18.70;1.00
435;DHT22;204;48.942;9.256;2022-10-22T09:33:44;18.70;1.00
435;DHT22;204;48.942;9.256;2022-10-22T09:36:16;18.80;1.00
435;DHT22;204;48.942;9.256;2022-10-22T09:38:48;19.00;1.00
435;DHT22;204;48.942;9.256;2022-10-22T09:41:15;19.10;1.00
435;DHT22;204;48.942;9.256;2022-10-22T09:43:40;19.10;1.00
435;DHT22;204;48.942;9.256;2022-10-22T09:46:15;19.00;1.00
435;DHT22;204;48.942;9.256;2022-10-22T09:48:45;19.10;1.00
435;DHT22;204;48.942;9.256;2022-10-22T09:51:17;19.10;1.00
435;DHT22;204;48.942;9.256;2022-10-22T09:53:45;19.20;1.00
435;DHT22;204;48.942;9.256;2022-10-22T09:58:53;19.40;1.00
435;DHT22;204;48.942;9.256;2022-10-22T10:01:26;19.50;1.00
435;DHT22;204;48.942;9.256;2022-10-22T10:03:52;19.60;1.00
435;DHT22;204;48.942;9.256;2022-10-22T10:06:20;19.70;1.00
435;DHT22;204;48.942;9.256;2022-10-22T10:08:46;19.70;1.00
435;DHT22;204;48.942;9.256;2022-10-22T10:11:28;19.80;1.00
435;DHT22;204;48.942;9.256;2022-10-22T10:14:18;19.90;1.00
435;DHT22;204;48.942;9.256;2022-10-22T10:27:25;20.40;1.00
435;DHT22;204;48.942;9.256;2022-10-22T10:30:04;20.30;1.00
435;DHT22;204;48.942;9.256;2022-10-22T10:35:50;20.40;1.00
435;DHT22;204;48.942;9.256;2022-10-22T10:41:44;20.40;1.00
435;DHT22;204;48.942;9.256;2022-10-22T10:49:09;20.20;1.00
435;DHT22;204;48.942;9.256;2022-10-22T11:00:22;19.90;1.00
435;DHT22;204;48.942;9.256;2022-10-22T11:10:46;19.80;1.00
435;DHT22;204;48.942;9.256;2022-10-22T11:24:02;19.70;1.00
435;DHT22;204;48.942;9.256;2022-10-22T11:29:16;19.80;1.00
435;DHT22;204;48.942;9.256;2022-10-22T11:31:45;19.80;1.00
435;DHT22;204;48.942;9.256;2022-10-22T11:34:32;19.80;1.00
435;DHT22;204;48.942;9.256;2022-10-22T11:36:59;19.90;1.00
435;DHT22;204;48.942;9.256;2022-10-22T11:42:52;19.90;1.00
435;DHT22;204;48.942;9.256;2022-10-22T12:08:45;20.10;1.00
435;DHT22;204;48.942;9.256;2022-10-22T12:19:26;20.30;1.00
435;DHT22;204;48.942;9.256;2022-10-22T12:24:40;20.50;1.00
435;DHT22;204;48.942;9.256;2022-10-22T12:29:45;20.60;1.00
435;DHT22;204;48.942;9.256;2022-10-22T12:32:13;20.60;1.00
435;DHT22;204;48.942;9.256;2022-10-22T12:34:50;20.60;1.00
435;DHT22;204;48.942;9.256;2022-10-22T12:37:16;20.70;1.00
435;DHT22;204;48.942;9.256;2022-10-22T12:39:43;20.70;1.00
435;DHT22;204;48.942;9.256;2022-10-22T12:42:13;20.70;1.00
435;DHT22;204;48.942;9.256;2022-10-22T12:44:39;20.80;1.00
435;DHT22;204;48.942;9.256;2022-10-22T12:47:05;20.80;1.00
435;DHT22;204;48.942;9.256;2022-10-22T12:49:40;20.80;1.00
435;DHT22;204;48.942;9.256;2022-10-22T12:52:12;20.80;1.00
435;DHT22;204;48.942;9.256;2022-10-22T12:54:39;20.90;1.00
435;DHT22;204;48.942;9.256;2022-10-22T12:57:09;20.90;1.00
435;DHT22;204;48.942;9.256;2022-10-22T12:59:37;20.90;1.00
435;DHT22;204;48.942;9.256;2022-10-22T13:02:16;20.90;1.00
435;DHT22;204;48.942;9.256;2022-10-22T13:07:39;20.80;1.00
435;DHT22;204;48.942;9.256;2022-10-22T13:12:48;20.80;1.00
435;DHT22;204;48.942;9.256;2022-10-22T13:20:32;20.80;1.00
435;DHT22;204;48.942;9.256;2022-10-22T13:23:20;20.80;1.00
435;DHT22;204;48.942;9.256;2022-10-22T13:26:03;20.80;1.00
435;DHT22;204;48.942;9.256;2022-10-22T13:28:30;20.80;1.00
435;DHT22;204;48.942;9.256;2022-10-22T13:30:59;20.80;1.00
435;DHT22;204;48.942;9.256;2022-10-22T13:33:37;20.80;1.00
435;DHT22;204;48.942;9.256;2022-10-22T13:36:05;20.80;1.00
435;DHT22;204;48.942;9.256;2022-10-22T13:38:31;20.80;1.00
435;DHT22;204;48.942;9.256;2022-10-22T13:40:57;20.80;1.00
435;DHT22;204;48.942;9.256;2022-10-22T13:43:23;20.80;1.00
435;DHT22;204;48.942;9.256;2022-10-22T13:45:53;20.80;1.00
435;DHT22;204;48.942;9.256;2022-10-22T13:48:20;20.80;1.00
435;DHT22;204;48.942;9.256;2022-10-22T13:50:50;20.70;1.00
435;DHT22;204;48.942;9.256;2022-10-22T13:53:19;20.80;1.00
435;DHT22;204;48.942;9.256;2022-10-22T13:55:46;20.70;1.00
435;DHT22;204;48.942;9.256;2022-10-22T14:00:40;20.70;1.00
435;DHT22;204;48.942;9.256;2022-10-22T14:03:09;20.70;1.00
435;DHT22;204;48.942;9.256;2022-10-22T14:05:35;20.60;1.00
435;DHT22;204;48.942;9.256;2022-10-22T14:08:01;20.60;1.00
435;DHT22;204;48.942;9.256;2022-10-22T14:10:27;20.60;1.00
435;DHT22;204;48.942;9.256;2022-10-22T14:12:53;20.50;1.00
435;DHT22;204;48.942;9.256;2022-10-22T14:15:23;20.50;1.00
435;DHT22;204;48.942;9.256;2022-10-22T14:17:57;20.50;1.00
435;DHT22;204;48.942;9.256;2022-10-22T14:20:26;20.50;1.00
435;DHT22;204;48.942;9.256;2022-10-22T14:22:52;20.50;1.00
435;DHT22;204;48.942;9.256;2022-10-22T14:25:24;20.40;1.00
435;DHT22;204;48.942;9.256;2022-10-22T14:27:50;20.40;1.00
435;DHT22;204;48.942;9.256;2022-10-22T14:30:23;20.30;1.00
435;DHT22;204;48.942;9.256;2022-10-22T14:32:50;20.30;1.00
435;DHT22;204;48.942;9.256;2022-10-22T14:35:18;20.30;1.00
435;DHT22;204;48.942;9.256;2022-10-22T14:37:44;20.30;1.00
435;DHT22;204;48.942;9.256;2022-10-22T14:40:13;20.30;1.00
435;DHT22;204;48.942;9.256;2022-10-22T14:42:40;20.30;1.00
435;DHT22;204;48.942;9.256;2022-10-22T14:45:19;20.30;1.00
435;DHT22;204;48.942;9.256;2022-10-22T14:47:45;20.30;1.00
435;DHT22;204;48.942;9.256;2022-10-22T14:50:11;20.20;1.00
435;DHT22;204;48.942;9.256;2022-10-22T14:52:38;20.20;1.00
435;DHT22;204;48.942;9.256;2022-10-22T14:55:04;20.20;1.00
435;DHT22;204;48.942;9.256;2022-10-22T14:57:30;20.20;1.00
435;DHT22;204;48.942;9.256;2022-10-22T14:59:55;20.10;1.00
435;DHT22;204;48.942;9.256;2022-10-22T15:02:21;20.10;1.00
435;DHT22;204;48.942;9.256;2022-10-22T15:04:47;20.10;1.00
435;DHT22;204;48.942;9.256;2022-10-22T15:07:13;20.00;1.00
435;DHT22;204;48.942;9.256;2022-10-22T15:09:39;20.00;1.00
435;DHT22;204;48.942;9.256;2022-10-22T15:12:06;20.00;1.00
435;DHT22;204;48.942;9.256;2022-10-22T15:14:32;20.00;1.00
435;DHT22;204;48.942;9.256;2022-10-22T15:16:58;19.90;1.00
435;DHT22;204;48.942;9.256;2022-10-22T15:19:24;19.90;1.00
435;DHT22;204;48.942;9.256;2022-10-22T15:21:50;19.90;1.00
435;DHT22;204;48.942;9.256;2022-10-22T15:24:15;19.90;1.00
435;DHT22;204;48.942;9.256;2022-10-22T15:26:41;19.80;1.00
435;DHT22;204;48.942;9.256;2022-10-22T15:29:06;19.80;1.00
435;DHT22;204;48.942;9.256;2022-10-22T15:31:48;19.70;1.00
435;DHT22;204;48.942;9.256;2022-10-22T15:34:22;19.70;1.00
435;DHT22;204;48.942;9.256;2022-10-22T15:36:49;19.70;1.00
435;DHT22;204;48.942;9.256;2022-10-22T15:39:16;19.70;1.00
435;DHT22;204;48.942;9.256;2022-10-22T15:41:41;19.60;1.00
435;DHT22;204;48.942;9.256;2022-10-22T15:44:08;19.60;1.00
435;DHT22;204;48.942;9.256;2022-10-22T15:46:38;19.50;1.00
435;DHT22;204;48.942;9.256;2022-10-22T15:49:04;19.50;1.00
435;DHT22;204;48.942;9.256;2022-10-22T15:51:29;19.40;1.00
435;DHT22;204;48.942;9.256;2022-10-22T15:53:57;19.40;1.00
435;DHT22;204;48.942;9.256;2022-10-22T15:56:24;19.30;1.00
435;DHT22;204;48.942;9.256;2022-10-22T15:59:01;19.20;1.00
435;DHT22;204;48.942;9.256;2022-10-22T16:01:31;19.10;1.00
435;DHT22;204;48.942;9.256;2022-10-22T16:03:58;19.00;1.00
435;DHT22;204;48.942;9.256;2022-10-22T16:06:33;18.90;1.00
435;DHT22;204;48.942;9.256;2022-10-22T16:09:00;18.80;1.00
435;DHT22;204;48.942;9.256;2022-10-22T16:11:27;18.70;1.00
435;DHT22;204;48.942;9.256;2022-10-22T16:13:54;18.70;1.00
435;DHT22;204;48.942;9.256;2022-10-22T16:16:22;18.60;1.00
435;DHT22;204;48.942;9.256;2022-10-22T16:18:50;18.50;1.00
435;DHT22;204;48.942;9.256;2022-10-22T16:21:16;18.30;1.00
435;DHT22;204;48.942;9.256;2022-10-22T16:23:42;18.20;1.00
435;DHT22;204;48.942;9.256;2022-10-22T16:26:08;18.10;1.00
435;DHT22;204;48.942;9.256;2022-10-22T16:28:34;18.00;1.00
435;DHT22;204;48.942;9.256;2022-10-22T16:31:04;17.80;1.00
435;DHT22;204;48.942;9.256;2022-10-22T16:33:31;17.70;1.00
435;DHT22;204;48.942;9.256;2022-10-22T16:35:58;17.50;1.00
435;DHT22;204;48.942;9.256;2022-10-22T16:38:24;17.40;1.00
435;DHT22;204;48.942;9.256;2022-10-22T16:40:49;17.30;1.00
435;DHT22;204;48.942;9.256;2022-10-22T16:43:15;17.20;1.00
435;DHT22;204;48.942;9.256;2022-10-22T16:45:50;17.00;1.00
435;DHT22;204;48.942;9.256;2022-10-22T16:48:16;16.90;1.00
435;DHT22;204;48.942;9.256;2022-10-22T16:50:43;16.80;1.00
435;DHT22;204;48.942;9.256;2022-10-22T16:53:09;16.70;1.00
435;DHT22;204;48.942;9.256;2022-10-22T16:55:35;16.70;1.00
435;DHT22;204;48.942;9.256;2022-10-22T16:58:02;16.50;1.00
435;DHT22;204;48.942;9.256;2022-10-22T17:00:27;16.50;1.00
435;DHT22;204;48.942;9.256;2022-10-22T17:02:53;16.40;1.00
435;DHT22;204;48.942;9.256;2022-10-22T17:05:19;16.30;1.00
435;DHT22;204;48.942;9.256;2022-10-22T17:07:45;16.20;1.00
435;DHT22;204;48.942;9.256;2022-10-22T17:10:11;16.10;1.00
435;DHT22;204;48.942;9.256;2022-10-22T17:12:36;16.10;1.00
435;DHT22;204;48.942;9.256;2022-10-22T17:15:03;16.00;1.00
435;DHT22;204;48.942;9.256;2022-10-22T17:17:30;15.90;1.00
435;DHT22;204;48.942;9.256;2022-10-22T17:19:55;15.80;1.00
435;DHT22;204;48.942;9.256;2022-10-22T17:22:21;15.80;1.00
435;DHT22;204;48.942;9.256;2022-10-22T17:24:46;15.70;1.00
435;DHT22;204;48.942;9.256;2022-10-22T17:27:28;15.70;1.00
435;DHT22;204;48.942;9.256;2022-10-22T17:29:53;15.60;1.00
435;DHT22;204;48.942;9.256;2022-10-22T17:32:19;15.50;1.00
435;DHT22;204;48.942;9.256;2022-10-22T17:34:45;15.50;1.00
435;DHT22;204;48.942;9.256;2022-10-22T17:37:10;15.40;1.00
435;DHT22;204;48.942;9.256;2022-10-22T17:39:36;15.40;1.00
435;DHT22;204;48.942;9.256;2022-10-22T17:42:01;15.30;1.00
435;DHT22;204;48.942;9.256;2022-10-22T17:44:27;15.30;1.00
435;DHT22;204;48.942;9.256;2022-10-22T17:46:52;15.30;1.00
435;DHT22;204;48.942;9.256;2022-10-22T17:49:19;15.30;1.00
435;DHT22;204;48.942;9.256;2022-10-22T17:51:45;15.20;1.00
435;DHT22;204;48.942;9.256;2022-10-22T17:54:12;15.20;1.00
435;DHT22;204;48.942;9.256;2022-10-22T17:56:38;15.20;1.00
435;DHT22;204;48.942;9.256;2022-10-22T17:59:05;15.10;1.00
435;DHT22;204;48.942;9.256;2022-10-22T18:01:35;15.10;1.00
435;DHT22;204;48.942;9.256;2022-10-22T18:04:06;15.00;1.00
435;DHT22;204;48.942;9.256;2022-10-22T18:06:32;14.90;1.00
435;DHT22;204;48.942;9.256;2022-10-22T18:08:58;14.90;1.00
435;DHT22;204;48.942;9.256;2022-10-22T18:11:25;14.80;1.00
435;DHT22;204;48.942;9.256;2022-10-22T18:13:54;14.70;1.00
435;DHT22;204;48.942;9.256;2022-10-22T18:16:20;14.70;1.00
435;DHT22;204;48.942;9.256;2022-10-22T18:18:47;14.60;1.00
435;DHT22;204;48.942;9.256;2022-10-22T18:21:14;14.60;1.00
435;DHT22;204;48.942;9.256;2022-10-22T18:23:39;14.60;1.00
435;DHT22;204;48.942;9.256;2022-10-22T18:26:05;14.50;1.00
435;DHT22;204;48.942;9.256;2022-10-22T18:28:31;14.50;1.00
435;DHT22;204;48.942;9.256;2022-10-22T18:30:56;14.40;1.00
435;DHT22;204;48.942;9.256;2022-10-22T18:33:22;14.40;1.00
435;DHT22;204;48.942;9.256;2022-10-22T18:35:49;14.40;1.00
435;DHT22;204;48.942;9.256;2022-10-22T18:38:18;14.30;1.00
435;DHT22;204;48.942;9.256;2022-10-22T18:40:47;14.30;1.00
435;DHT22;204;48.942;9.256;2022-10-22T18:43:13;14.20;1.00
435;DHT22;204;48.942;9.256;2022-10-22T18:45:44;14.20;1.00
435;DHT22;204;48.942;9.256;2022-10-22T18:48:13;14.10;1.00
435;DHT22;204;48.942;9.256;2022-10-22T18:50:39;14.10;1.00
435;DHT22;204;48.942;9.256;2022-10-22T18:53:04;14.10;1.00
435;DHT22;204;48.942;9.256;2022-10-22T18:55:30;14.00;1.00
435;DHT22;204;48.942;9.256;2022-10-22T18:57:55;14.10;1.00
435;DHT22;204;48.942;9.256;2022-10-22T19:00:21;14.00;1.00
435;DHT22;204;48.942;9.256;2022-10-22T19:02:47;14.00;1.00
435;DHT22;204;48.942;9.256;2022-10-22T19:05:12;14.00;1.00
435;DHT22;204;48.942;9.256;2022-10-22T19:07:38;14.00;1.00
435;DHT22;204;48.942;9.256;2022-10-22T19:10:05;14.00;1.00
435;DHT22;204;48.942;9.256;2022-10-22T19:12:31;14.00;1.00
435;DHT22;204;48.942;9.256;2022-10-22T19:14:56;14.00;1.00
435;DHT22;204;48.942;9.256;2022-10-22T19:17:22;13.90;1.00
435;DHT22;204;48.942;9.256;2022-10-22T19:19:47;13.90;1.00
435;DHT22;204;48.942;9.256;2022-10-22T19:22:13;13.90;1.00
435;DHT22;204;48.942;9.256;2022-10-22T19:24:38;13.90;1.00
435;DHT22;204;48.942;9.256;2022-10-22T19:27:04;13.90;1.00
435;DHT22;204;48.942;9.256;2022-10-22T19:29:30;13.90;1.00
435;DHT22;204;48.942;9.256;2022-10-22T19:31:55;13.90;1.00
435;DHT22;204;48.942;9.256;2022-10-22T19:34:21;13.80;1.00